HORACE LAKE: From 04/19/2019 02:00 to 06/18/2019 17:00

Date LAKE ELEVATION [FT] PRECIPITATION INCREMENT [IN] AIR TEMPERATURE [F] RELATIVE HUMIDITY [%] RELEASE [CFS]
06/18/2019 12:00 655.58 0.00 66.0 67.0 --
06/18/2019 11:00 655.58 0.00 65.0 64.0 --
06/18/2019 10:00 655.59 0.00 60.9 91.0 --
06/18/2019 09:00 655.59 0.00 57.3 100.0 --
06/18/2019 08:00 655.59 0.00 55.7 100.0 --
06/18/2019 07:00 655.59 0.00 55.7 100.0 --
06/18/2019 06:00 655.58 0.00 56.2 100.0 --
06/18/2019 05:00 655.59 0.00 58.7 100.0 --
06/18/2019 04:00 655.59 0.00 58.7 100.0 --
06/18/2019 03:00 655.59 0.00 59.5 100.0 --
06/18/2019 02:00 655.59 0.00 59.5 100.0 --
06/18/2019 01:00 655.59 0.00 59.1 100.0 --
06/18/2019 00:00 655.59 0.00 61.2 88.0 --
06/17/2019 23:00 655.59 0.00 64.5 82.0 --
06/17/2019 22:00 655.59 0.00 67.0 73.0 --
06/17/2019 21:00 655.59 0.00 75.8 52.0 --
06/17/2019 20:00 655.60 0.00 74.8 57.0 --
06/17/2019 19:00 655.60 0.00 76.3 41.0 --
06/17/2019 18:00 655.60 0.00 75.5 38.0 --
06/17/2019 17:00 655.60 0.00 74.2 42.0 --
06/17/2019 16:00 655.60 0.00 74.2 42.0 --
06/17/2019 15:00 655.61 0.00 72.3 48.0 --
06/17/2019 14:00 655.61 0.00 69.0 53.0 --
06/17/2019 13:00 655.60 0.00 67.5 60.0 --
06/17/2019 12:00 655.59 0.00 66.4 63.0 --
06/17/2019 11:00 655.60 0.00 63.2 72.0 --
06/17/2019 10:00 655.61 0.01 59.6 96.0 --
06/17/2019 09:00 655.60 0.00 57.0 100.0 --
06/17/2019 08:00 655.60 0.00 57.0 100.0 --
06/17/2019 07:00 655.60 0.00 56.5 100.0 --
06/17/2019 06:00 655.60 0.00 56.5 100.0 --
06/17/2019 05:00 655.60 0.00 59.5 100.0 --
06/17/2019 04:00 655.60 0.00 60.9 100.0 --
06/17/2019 03:00 655.60 0.00 62.3 100.0 --
06/17/2019 02:00 655.59 0.00 62.9 100.0 --
06/17/2019 01:00 655.60 0.00 63.4 100.0 --
06/17/2019 00:00 655.59 0.00 63.5 100.0 --
06/16/2019 23:00 655.60 0.00 64.0 100.0 --
06/16/2019 22:00 655.59 0.00 64.8 100.0 --
06/16/2019 21:00 655.59 0.00 65.4 100.0 --
06/16/2019 20:00 655.59 0.00 65.4 100.0 --
06/16/2019 19:00 655.59 0.03 65.2 100.0 --
06/16/2019 18:00 655.60 0.03 65.1 100.0 --
06/16/2019 17:00 655.59 0.03 65.2 100.0 --
06/16/2019 16:00 655.58 0.00 65.6 100.0 --
06/16/2019 15:00 655.58 0.05 65.6 100.0 --
06/16/2019 14:00 655.59 0.13 65.2 100.0 --
06/16/2019 13:00 655.57 0.00 65.3 91.0 --
06/16/2019 12:00 655.57 0.00 65.8 85.0 --
06/16/2019 11:00 655.57 0.00 65.4 84.0 --
06/16/2019 10:00 655.57 0.00 64.6 86.0 --
06/16/2019 09:00 655.58 0.00 63.7 86.0 --
06/16/2019 08:00 655.57 0.00 63.1 88.0 --
06/16/2019 07:00 655.57 0.00 62.8 85.0 --
06/16/2019 06:00 655.58 0.00 64.3 75.0 --
06/16/2019 05:00 655.58 0.00 64.3 75.0 --
06/16/2019 04:00 655.58 0.00 67.8 60.0 --
06/16/2019 03:00 655.56 0.00 70.3 50.0 --
06/16/2019 02:00 655.59 0.00 70.8 47.0 --
06/16/2019 01:00 655.59 0.00 71.4 50.0 --
06/16/2019 00:00 655.59 0.00 71.4 50.0 --
06/15/2019 23:00 655.57 0.00 71.8 57.0 --
06/15/2019 22:00 655.59 0.00 72.7 49.0 --
06/15/2019 21:00 655.59 0.00 74.9 42.0 --
06/15/2019 20:00 655.59 0.00 75.8 38.0 --
06/15/2019 19:00 655.59 0.00 75.8 38.0 --
06/15/2019 18:00 655.62 0.00 77.8 32.0 --
06/15/2019 17:00 655.58 0.00 76.0 32.0 --
06/15/2019 16:00 655.60 0.00 74.5 37.0 --
06/15/2019 15:00 655.62 0.00 73.4 35.0 --
06/15/2019 14:00 655.62 0.00 73.4 35.0 --
06/15/2019 13:00 655.58 0.00 71.5 38.0 --
06/15/2019 12:00 655.60 0.00 66.1 54.0 --
06/15/2019 11:00 655.60 0.00 60.9 68.0 --
06/15/2019 10:00 655.60 0.00 58.5 74.0 --
06/15/2019 09:00 655.60 0.00 58.5 74.0 --
06/15/2019 08:00 655.61 0.00 58.2 69.0 --
06/15/2019 07:00 655.61 0.00 55.6 78.0 --
06/15/2019 06:00 655.61 0.00 50.8 96.0 --
06/15/2019 05:00 655.60 0.00 55.2 78.0 --
06/15/2019 04:00 655.60 0.00 55.2 78.0 --
06/15/2019 03:00 655.60 0.00 50.6 99.0 --
06/15/2019 02:00 655.60 0.00 56.2 76.0 --
06/15/2019 01:00 655.61 0.00 55.7 77.0 --
06/15/2019 00:00 655.60 0.00 58.5 73.0 --
06/14/2019 23:00 655.60 0.00 58.5 73.0 --
06/14/2019 22:00 655.61 0.00 58.4 70.0 --
06/14/2019 21:00 655.60 0.00 58.7 68.0 --
06/14/2019 20:00 655.62 0.00 59.9 67.0 --
06/14/2019 19:00 655.62 0.00 62.6 59.0 --
06/14/2019 18:00 655.62 0.01 62.6 59.0 --
06/14/2019 17:00 655.63 0.00 63.7 62.0 --
06/14/2019 16:00 655.63 0.00 64.4 63.0 --
06/14/2019 15:00 655.63 0.00 64.7 61.0 --
06/14/2019 14:00 655.62 0.00 64.7 59.0 --
06/14/2019 13:00 655.62 0.00 64.7 59.0 --
06/14/2019 12:00 655.63 0.00 62.8 68.0 --
06/14/2019 11:00 655.63 0.00 59.8 84.0 --
06/14/2019 10:00 655.62 0.00 57.2 100.0 --
06/14/2019 09:00 655.63 0.00 52.2 100.0 --
06/14/2019 08:00 655.63 0.00 51.1 100.0 --
06/14/2019 07:00 655.63 0.00 49.6 100.0 --
06/14/2019 06:00 655.63 0.00 49.6 100.0 --
06/14/2019 05:00 655.62 0.00 50.1 100.0 --
06/14/2019 04:00 655.63 0.00 49.2 100.0 --
06/14/2019 03:00 655.63 0.00 48.9 100.0 --
06/14/2019 02:00 655.63 0.00 49.7 100.0 --
06/14/2019 01:00 655.63 0.00 49.7 100.0 --
06/14/2019 00:00 655.62 0.00 49.5 100.0 --
06/13/2019 23:00 655.63 0.00 50.7 100.0 --
06/13/2019 22:00 655.63 0.01 50.7 100.0 --
06/13/2019 21:00 655.61 0.00 50.8 100.0 --
06/13/2019 20:00 655.61 0.00 50.8 100.0 --
06/13/2019 19:00 655.62 0.03 50.8 100.0 --
06/13/2019 18:00 655.62 0.14 49.8 100.0 --
06/13/2019 17:00 655.60 0.00 50.2 100.0 --
06/13/2019 16:00 655.61 0.00 50.9 100.0 --
06/13/2019 15:00 655.61 0.05 50.9 100.0 --
06/13/2019 14:00 655.60 0.05 53.4 100.0 --
06/13/2019 13:00 655.60 0.01 54.7 100.0 --
06/13/2019 12:00 655.60 0.00 54.7 88.0 --
06/13/2019 11:00 655.61 0.00 54.3 88.0 --
06/13/2019 10:00 655.60 0.00 53.6 91.0 --
06/13/2019 09:00 655.61 0.00 52.9 94.0 --
06/13/2019 08:00 655.60 0.00 50.9 96.0 --
06/13/2019 07:00 655.60 0.00 50.9 96.0 --
06/13/2019 06:00 655.61 0.00 51.5 92.0 --
06/13/2019 05:00 655.61 0.00 52.6 90.0 --
06/13/2019 04:00 655.61 0.00 55.7 77.0 --
06/13/2019 03:00 655.62 0.00 60.8 63.0 --
06/13/2019 02:00 655.60 0.00 60.5 67.0 --
06/13/2019 01:00 655.62 0.00 59.9 79.0 --
06/13/2019 00:00 655.62 0.00 59.9 79.0 --
06/12/2019 23:00 655.62 0.00 61.0 72.0 --
06/12/2019 22:00 655.61 0.00 69.5 54.0 --
06/12/2019 21:00 655.62 0.00 73.7 38.0 --
06/12/2019 20:00 655.63 0.00 75.3 31.0 --
06/12/2019 19:00 655.63 0.00 75.8 30.0 --
06/12/2019 18:00 655.63 0.00 74.9 32.0 --
06/12/2019 17:00 655.62 0.00 73.1 31.0 --
06/12/2019 16:00 655.63 0.00 71.7 32.0 --
06/12/2019 15:00 655.63 0.00 69.2 35.0 --
06/12/2019 14:00 655.63 0.00 67.8 39.0 --
06/12/2019 13:00 655.63 0.00 65.0 42.0 --
06/12/2019 12:00 655.64 0.00 63.6 48.0 --
06/12/2019 11:00 655.64 0.00 63.6 48.0 --
06/12/2019 10:00 655.64 0.00 62.1 54.0 --
06/12/2019 09:00 655.64 0.00 51.3 85.0 --
06/12/2019 08:00 655.64 0.00 50.1 94.0 --
06/12/2019 07:00 655.64 0.00 49.5 99.0 --
06/12/2019 06:00 655.64 0.00 50.3 91.0 --
06/12/2019 05:00 655.64 0.00 51.7 87.0 --
06/12/2019 04:00 655.65 0.00 51.3 84.0 --
06/12/2019 03:00 655.64 0.00 56.1 67.0 --
06/12/2019 02:00 655.65 0.00 56.9 69.0 --
06/12/2019 01:00 655.65 0.00 57.7 67.0 --
06/12/2019 00:00 655.64 0.00 61.4 53.0 --
06/11/2019 23:00 655.64 0.00 61.4 53.0 --
06/11/2019 22:00 655.63 0.00 62.7 56.0 --
06/11/2019 21:00 655.65 0.00 67.3 48.0 --
06/11/2019 20:00 655.62 0.00 69.3 49.0 --
06/11/2019 19:00 655.65 0.00 71.3 50.0 --
06/11/2019 18:00 655.65 0.00 71.3 50.0 --
06/11/2019 17:00 655.64 0.00 69.0 56.0 --
06/11/2019 16:00 655.66 0.00 66.7 71.0 --
06/11/2019 15:00 655.66 0.00 66.7 71.0 --
06/11/2019 14:00 655.63 0.00 67.9 72.0 --
06/11/2019 13:00 655.64 0.01 66.4 99.0 --
06/11/2019 12:00 655.64 0.00 68.8 100.0 --
06/11/2019 11:00 655.63 0.00 67.6 100.0 --
06/11/2019 10:00 655.63 0.03 66.2 100.0 --
06/11/2019 09:00 655.62 0.24 65.3 100.0 --
06/11/2019 08:00 655.61 0.09 64.7 100.0 --
06/11/2019 07:00 655.60 0.01 64.3 100.0 --
06/11/2019 06:00 655.60 0.00 64.2 100.0 --
06/11/2019 05:00 655.60 0.02 64.2 100.0 --
06/11/2019 04:00 655.59 0.02 64.2 100.0 --
06/11/2019 03:00 655.59 0.14 64.5 100.0 --
06/11/2019 02:00 655.58 0.06 64.5 100.0 --
06/11/2019 01:00 655.59 0.00 68.0 77.0 --
06/11/2019 00:00 655.58 0.00 68.6 69.0 --
06/10/2019 23:00 655.58 0.00 68.6 66.0 --
06/10/2019 22:00 655.58 0.00 72.0 52.0 --
06/10/2019 21:00 655.59 0.00 74.7 46.0 --
06/10/2019 20:00 655.58 0.00 76.2 43.0 --
06/10/2019 19:00 655.58 0.00 76.2 43.0 --
06/10/2019 18:00 655.58 0.00 78.3 38.0 --
06/10/2019 17:00 655.60 0.00 78.4 35.0 --
06/10/2019 16:00 655.59 0.00 77.1 37.0 --
06/10/2019 15:00 655.60 0.00 74.3 38.0 --
06/10/2019 14:00 655.60 0.00 74.3 38.0 --
06/10/2019 13:00 655.60 0.00 74.4 35.0 --
06/10/2019 12:00 655.59 0.00 71.4 40.0 --
06/10/2019 11:00 655.60 0.00 66.8 47.0 --
06/10/2019 10:00 655.61 0.00 61.1 61.0 --
06/10/2019 09:00 655.61 0.00 56.4 79.0 --
06/10/2019 08:00 655.61 0.00 55.7 76.0 --
06/10/2019 07:00 655.61 0.00 57.1 68.0 --
06/10/2019 06:00 655.61 0.00 59.0 65.0 --
06/10/2019 05:00 655.62 0.00 60.6 59.0 --
06/10/2019 04:00 655.62 0.00 60.6 59.0 --
06/10/2019 03:00 655.61 0.00 61.4 66.0 --
06/10/2019 02:00 655.63 0.00 61.0 74.0 --
06/10/2019 01:00 655.61 0.00 60.7 73.0 --
06/10/2019 00:00 655.62 0.00 62.4 63.0 --
06/09/2019 23:00 655.62 0.00 62.4 63.0 --
06/09/2019 22:00 655.63 0.00 65.0 62.0 --
06/09/2019 21:00 655.63 0.00 66.8 53.0 --
06/09/2019 20:00 655.63 0.00 76.0 40.0 --
06/09/2019 19:00 655.63 0.00 79.6 24.0 --
06/09/2019 18:00 655.63 0.00 79.6 24.0 --
06/09/2019 17:00 655.64 0.00 79.6 22.0 --
06/09/2019 16:00 655.65 0.00 77.0 22.0 --
06/09/2019 15:00 655.65 0.00 75.8 28.0 --
06/09/2019 14:00 655.65 0.00 71.9 31.0 --
06/09/2019 13:00 655.64 0.00 70.9 41.0 --
06/09/2019 12:00 655.65 0.00 66.1 46.0 --
06/09/2019 11:00 655.65 0.00 66.1 46.0 --
06/09/2019 10:00 655.66 0.00 63.4 57.0 --
06/09/2019 09:00 655.66 0.00 49.7 90.0 --
06/09/2019 08:00 655.66 0.00 49.7 90.0 --
06/09/2019 07:00 655.67 0.00 47.0 98.0 --
06/09/2019 06:00 655.66 0.00 49.0 93.0 --
06/09/2019 05:00 655.67 0.00 50.5 87.0 --
06/09/2019 04:00 655.68 0.00 51.7 84.0 --
06/09/2019 03:00 655.68 0.00 53.0 82.0 --
06/09/2019 02:00 655.68 0.00 52.5 77.0 --
06/09/2019 01:00 655.69 0.00 56.1 71.0 --
06/09/2019 00:00 655.69 0.00 59.1 56.0 --
06/08/2019 23:00 655.70 0.00 61.6 63.0 --
06/08/2019 22:00 655.70 0.00 61.6 63.0 --
06/08/2019 21:00 655.69 0.00 66.8 45.0 --
06/08/2019 20:00 655.71 0.00 77.0 24.0 --
06/08/2019 19:00 655.71 0.00 76.6 18.0 --
06/08/2019 18:00 655.72 0.00 75.4 22.0 --
06/08/2019 17:00 655.72 0.00 75.4 22.0 --
06/08/2019 16:00 655.71 0.00 74.5 23.0 --
06/08/2019 15:00 655.74 0.00 70.8 27.0 --
06/08/2019 14:00 655.74 0.00 71.0 26.0 --
06/08/2019 13:00 655.74 0.00 68.8 31.0 --
06/08/2019 12:00 655.73 0.00 67.2 30.0 --
06/08/2019 11:00 655.75 0.00 66.3 52.0 --
06/08/2019 10:00 655.75 0.00 66.3 52.0 --
06/08/2019 09:00 655.75 0.00 60.2 74.0 --
06/08/2019 08:00 655.76 0.00 51.8 100.0 --
06/08/2019 07:00 655.76 0.00 51.8 100.0 --
06/08/2019 06:00 655.76 0.00 52.9 100.0 --
06/08/2019 05:00 655.77 0.00 54.5 99.0 --
06/08/2019 04:00 655.78 0.00 55.8 94.0 --
06/08/2019 03:00 655.79 0.00 59.4 86.0 --
06/08/2019 02:00 655.79 0.00 59.4 86.0 --
06/08/2019 01:00 655.80 0.00 60.9 84.0 --
06/08/2019 00:00 655.80 0.00 61.2 79.0 --
06/07/2019 23:00 655.79 0.00 61.6 77.0 --
06/07/2019 22:00 655.82 0.00 68.4 66.0 --
06/07/2019 21:00 655.82 0.00 74.0 52.0 --
06/07/2019 20:00 655.82 0.00 78.0 30.0 --
06/07/2019 19:00 655.82 0.00 78.0 30.0 --
06/07/2019 18:00 655.84 0.00 78.1 32.0 --
06/07/2019 17:00 655.86 0.00 76.7 29.0 --
06/07/2019 16:00 655.86 0.00 76.7 29.0 --
06/07/2019 15:00 655.84 0.00 75.8 26.0 --
06/07/2019 14:00 655.87 0.00 72.4 33.0 --
06/07/2019 13:00 655.87 0.00 70.3 41.0 --
06/07/2019 12:00 655.88 0.00 69.3 50.0 --
06/07/2019 11:00 655.89 0.00 63.9 69.0 --
06/07/2019 10:00 655.89 0.00 56.1 84.0 --
06/07/2019 09:00 655.89 0.00 51.8 96.0 --
06/07/2019 08:00 655.90 0.00 49.5 100.0 --
06/07/2019 07:00 655.91 0.00 50.0 100.0 --
06/07/2019 06:00 655.91 0.00 50.0 100.0 --
06/07/2019 05:00 655.91 0.00 50.9 100.0 --
06/07/2019 04:00 655.92 0.00 52.9 100.0 --
06/07/2019 03:00 655.92 0.00 54.7 97.0 --
06/07/2019 02:00 655.92 0.00 56.1 86.0 --
06/07/2019 01:00 655.92 0.00 57.7 90.0 --
06/07/2019 00:00 655.92 0.00 59.3 80.0 --
06/06/2019 23:00 655.92 0.00 62.2 85.0 --
06/06/2019 22:00 655.91 0.00 65.3 74.0 --
06/06/2019 21:00 655.92 0.00 74.3 43.0 --
06/06/2019 20:00 655.90 0.00 74.6 44.0 --
06/06/2019 19:00 655.91 0.00 73.4 49.0 --
06/06/2019 18:00 655.91 0.00 74.0 45.0 --
06/06/2019 17:00 655.91 0.00 74.0 45.0 --
06/06/2019 16:00 655.90 0.00 72.4 48.0 --
06/06/2019 15:00 655.88 0.00 69.9 66.0 --
06/06/2019 14:00 655.87 0.01 68.6 73.0 --
06/06/2019 13:00 655.86 0.00 66.7 85.0 --
06/06/2019 12:00 655.86 0.00 66.7 85.0 --
06/06/2019 11:00 655.85 0.00 65.0 98.0 --
06/06/2019 10:00 655.82 0.00 59.3 100.0 --
06/06/2019 09:00 655.78 0.00 58.2 100.0 --
06/06/2019 08:00 655.77 0.00 58.3 100.0 --
06/06/2019 07:00 655.77 0.08 58.3 100.0 --
06/06/2019 06:00 655.74 0.11 58.4 100.0 --
06/06/2019 05:00 655.72 0.09 58.3 100.0 --
06/06/2019 04:00 655.70 0.76 57.9 100.0 --
06/06/2019 03:00 655.62 0.20 57.9 100.0 --
06/06/2019 02:00 655.58 0.15 58.2 100.0 --
06/06/2019 01:00 655.58 0.02 59.9 100.0 --
06/06/2019 00:00 655.57 0.04 60.0 100.0 --
06/05/2019 23:00 655.57 0.00 65.4 80.0 --
06/05/2019 22:00 655.57 0.00 66.8 80.0 --
06/05/2019 21:00 655.57 0.00 67.2 87.0 --
06/05/2019 20:00 655.56 0.00 70.8 78.0 --
06/05/2019 19:00 655.56 0.00 70.8 78.0 --
06/05/2019 18:00 655.57 0.00 68.8 79.0 --
06/05/2019 17:00 655.57 0.00 74.0 56.0 --
06/05/2019 16:00 655.57 0.00 74.4 51.0 --
06/05/2019 15:00 655.60 0.00 72.9 51.0 --
06/05/2019 14:00 655.60 0.00 72.9 51.0 --
06/05/2019 13:00 655.58 0.00 71.7 54.0 --
06/05/2019 12:00 655.56 0.00 58.4 87.0 --
06/05/2019 11:00 655.56 0.00 58.4 87.0 --
06/05/2019 10:00 655.58 0.00 53.9 100.0 --
06/05/2019 09:00 655.57 0.00 51.4 100.0 --
06/05/2019 08:00 655.59 0.00 50.0 100.0 --
06/05/2019 07:00 655.57 0.00 48.7 100.0 --
06/05/2019 06:00 655.57 0.00 48.7 100.0 --
06/05/2019 05:00 655.59 0.00 49.3 100.0 --
06/05/2019 04:00 655.58 0.01 50.0 100.0 --
06/05/2019 03:00 655.58 0.00 50.1 100.0 --
06/05/2019 02:00 655.59 0.00 53.1 72.0 --
06/05/2019 01:00 655.59 0.00 54.2 64.0 --
06/05/2019 00:00 655.59 0.00 55.7 58.0 --
06/04/2019 23:00 655.59 0.00 55.7 58.0 --
06/04/2019 22:00 655.59 0.00 57.3 53.0 --
06/04/2019 21:00 655.60 0.00 61.4 36.0 --
06/04/2019 20:00 655.60 0.00 62.0 39.0 --
06/04/2019 19:00 655.60 0.00 62.1 36.0 --
06/04/2019 18:00 655.60 0.00 62.1 36.0 --
06/04/2019 17:00 655.58 0.00 62.2 33.0 --
06/04/2019 16:00 655.60 0.00 60.7 31.0 --
06/04/2019 15:00 655.61 0.00 59.3 36.0 --
06/04/2019 14:00 655.61 0.00 58.4 39.0 --
06/04/2019 13:00 655.61 0.00 58.4 39.0 --
06/04/2019 12:00 655.60 0.00 58.1 38.0 --
06/04/2019 11:00 655.61 0.00 53.9 58.0 --
06/04/2019 10:00 655.62 0.00 50.8 66.0 --
06/04/2019 09:00 655.62 0.00 44.9 86.0 --
06/04/2019 08:00 655.62 0.00 44.9 86.0 --
06/04/2019 07:00 655.62 0.00 43.2 94.0 --
06/04/2019 06:00 655.62 0.00 41.1 100.0 --
06/04/2019 05:00 655.62 0.00 45.3 79.0 --
06/04/2019 04:00 655.61 0.00 47.2 76.0 --
06/04/2019 03:00 655.61 0.00 47.2 76.0 --
06/04/2019 02:00 655.61 0.00 48.8 72.0 --
06/04/2019 01:00 655.62 0.00 50.5 67.0 --
06/04/2019 00:00 655.62 0.00 53.5 62.0 --
06/03/2019 23:00 655.62 0.00 53.8 57.0 --
06/03/2019 22:00 655.63 0.00 55.0 53.0 --
06/03/2019 21:00 655.62 0.00 55.8 49.0 --
06/03/2019 20:00 655.62 0.00 55.8 49.0 --
06/03/2019 19:00 655.63 0.00 56.6 45.0 --
06/03/2019 18:00 655.64 0.00 59.8 38.0 --
06/03/2019 17:00 655.64 0.00 61.2 37.0 --
06/03/2019 16:00 655.62 0.00 59.6 37.0 --
06/03/2019 15:00 655.62 0.00 59.6 37.0 --
06/03/2019 14:00 655.66 0.01 60.1 33.0 --
06/03/2019 13:00 655.65 0.00 58.6 33.0 --
06/03/2019 12:00 655.65 0.00 57.3 46.0 --
06/03/2019 11:00 655.65 0.00 55.3 54.0 --
06/03/2019 10:00 655.64 0.00 53.1 59.0 --
06/03/2019 09:00 655.64 0.00 48.8 72.0 --
06/03/2019 08:00 655.64 0.00 47.2 88.0 --
06/03/2019 07:00 655.64 0.00 47.2 88.0 --
06/03/2019 06:00 655.64 0.00 46.2 100.0 --
06/03/2019 05:00 655.63 0.00 48.6 100.0 --
06/03/2019 04:00 655.64 0.00 50.3 100.0 --
06/03/2019 03:00 655.64 0.01 58.9 86.0 --
06/03/2019 02:00 655.62 0.01 60.1 100.0 --
06/03/2019 01:00 655.63 0.00 60.0 100.0 --
06/03/2019 00:00 655.63 0.00 60.0 100.0 --
06/02/2019 23:00 655.62 0.00 58.8 100.0 --
06/02/2019 22:00 655.60 0.00 59.6 100.0 --
06/02/2019 21:00 655.61 0.00 59.9 100.0 --
06/02/2019 20:00 655.62 0.10 60.5 100.0 --
06/02/2019 19:00 655.58 0.53 59.4 100.0 --
06/02/2019 18:00 655.55 0.00 66.9 74.0 --
06/02/2019 17:00 655.56 0.00 66.3 79.0 --
06/02/2019 16:00 655.56 0.00 66.3 79.0 --
06/02/2019 15:00 655.57 0.00 62.9 86.0 --
06/02/2019 14:00 655.56 0.00 56.0 100.0 --
06/02/2019 13:00 655.57 0.00 55.1 100.0 --
06/02/2019 12:00 655.56 0.00 54.1 100.0 --
06/02/2019 11:00 655.56 0.00 54.1 100.0 --
06/02/2019 10:00 655.56 0.00 53.1 100.0 --
06/02/2019 09:00 655.56 0.00 53.2 100.0 --
06/02/2019 08:00 655.56 0.00 52.9 100.0 --
06/02/2019 07:00 655.56 0.00 53.6 100.0 --
06/02/2019 06:00 655.56 0.00 53.6 100.0 --
06/02/2019 05:00 655.57 0.00 53.7 100.0 --
06/02/2019 04:00 655.57 0.00 53.4 100.0 --
06/02/2019 03:00 655.56 0.00 53.8 100.0 --
06/02/2019 02:00 655.57 0.00 53.2 100.0 --
06/02/2019 01:00 655.56 0.00 53.8 100.0 --
06/02/2019 00:00 655.57 0.00 56.5 87.0 --
06/01/2019 23:00 655.57 0.00 59.3 77.0 --
06/01/2019 22:00 655.57 0.00 63.4 62.0 --
06/01/2019 21:00 655.57 0.00 67.7 59.0 --
06/01/2019 20:00 655.57 0.00 67.7 59.0 --
06/01/2019 19:00 655.57 0.00 70.7 53.0 --
06/01/2019 18:00 655.58 0.00 72.0 48.0 --
06/01/2019 17:00 655.57 0.00 70.8 46.0 --
06/01/2019 16:00 655.57 0.00 67.8 53.0 --
06/01/2019 15:00 655.59 0.00 68.0 50.0 --
06/01/2019 14:00 655.57 0.00 63.7 55.0 --
06/01/2019 13:00 655.57 0.00 63.7 55.0 --
06/01/2019 12:00 655.57 0.00 58.6 66.0 --
06/01/2019 11:00 655.59 0.00 55.1 83.0 --
06/01/2019 10:00 655.58 0.00 52.7 95.0 --
06/01/2019 09:00 655.59 0.00 49.7 100.0 --
06/01/2019 08:00 655.59 0.00 47.9 100.0 --
06/01/2019 07:00 655.58 0.00 49.8 100.0 --
06/01/2019 06:00 655.59 0.00 50.3 100.0 --
06/01/2019 05:00 655.59 0.00 50.3 100.0 --
06/01/2019 04:00 655.59 0.00 50.4 100.0 --
06/01/2019 03:00 655.58 0.00 53.6 100.0 --
06/01/2019 02:00 655.58 0.00 56.6 97.0 --
06/01/2019 01:00 655.60 0.00 56.0 98.0 --
06/01/2019 00:00 655.60 0.00 56.0 98.0 --
05/31/2019 23:00 655.59 0.00 56.4 93.0 --
05/31/2019 22:00 655.59 0.00 61.6 75.0 --
05/31/2019 21:00 655.60 0.00 66.5 63.0 --
05/31/2019 20:00 655.59 0.00 70.7 44.0 --
05/31/2019 19:00 655.59 0.00 70.7 44.0 --
05/31/2019 18:00 655.58 0.00 70.6 38.0 --
05/31/2019 17:00 655.59 0.00 69.7 42.0 --
05/31/2019 16:00 655.62 0.00 68.6 44.0 --
05/31/2019 15:00 655.60 0.00 66.8 44.0 --
05/31/2019 14:00 655.60 0.00 66.8 44.0 --
05/31/2019 13:00 655.61 0.00 65.2 53.0 --
05/31/2019 12:00 655.61 0.00 62.5 70.0 --
05/31/2019 11:00 655.61 0.00 61.9 76.0 --
05/31/2019 10:00 655.60 0.00 61.9 94.0 --
05/31/2019 09:00 655.61 0.00 58.8 100.0 --
05/31/2019 08:00 655.62 0.00 58.1 100.0 --
05/31/2019 07:00 655.61 0.00 56.7 100.0 --
05/31/2019 06:00 655.60 0.00 59.4 100.0 --
05/31/2019 05:00 655.62 0.00 58.3 100.0 --
05/31/2019 04:00 655.62 0.00 58.3 100.0 --
05/31/2019 03:00 655.62 0.00 59.6 100.0 --
05/31/2019 02:00 655.62 0.03 59.8 100.0 --
05/31/2019 01:00 655.62 0.01 60.3 100.0 --
05/31/2019 00:00 655.61 0.00 62.1 87.0 --
05/30/2019 23:00 655.62 0.00 62.9 82.0 --
05/30/2019 22:00 655.63 0.00 62.4 84.0 --
05/30/2019 21:00 655.62 0.00 66.2 69.0 --
05/30/2019 20:00 655.63 0.00 67.4 65.0 --
05/30/2019 19:00 655.62 0.00 69.5 61.0 --
05/30/2019 18:00 655.61 0.00 68.4 57.0 --
05/30/2019 17:00 655.62 0.00 66.2 67.0 --
05/30/2019 16:00 655.62 0.00 62.7 81.0 --
05/30/2019 15:00 655.62 0.00 62.2 76.0 --
05/30/2019 14:00 655.61 0.00 58.8 84.0 --
05/30/2019 13:00 655.61 0.00 58.8 84.0 --
05/30/2019 12:00 655.63 0.00 55.2 93.0 --
05/30/2019 11:00 655.64 0.00 50.4 100.0 --
05/30/2019 10:00 655.63 0.00 49.1 100.0 --
05/30/2019 09:00 655.63 0.00 48.4 100.0 --
05/30/2019 08:00 655.62 0.00 47.7 100.0 --
05/30/2019 07:00 655.64 0.00 47.5 100.0 --
05/30/2019 06:00 655.64 0.00 47.7 100.0 --
05/30/2019 05:00 655.64 0.00 47.7 100.0 --
05/30/2019 04:00 655.62 0.00 47.8 100.0 --
05/30/2019 03:00 655.63 0.00 48.9 100.0 --
05/30/2019 02:00 655.63 0.00 49.1 100.0 --
05/30/2019 01:00 655.63 0.00 49.9 100.0 --
05/30/2019 00:00 655.63 0.00 49.9 100.0 --
05/29/2019 23:00 655.62 0.00 50.1 100.0 --
05/29/2019 22:00 655.64 0.00 51.2 91.0 --
05/29/2019 21:00 655.64 0.00 52.3 88.0 --
05/29/2019 20:00 655.64 0.00 53.0 84.0 --
05/29/2019 19:00 655.64 0.00 53.0 84.0 --
05/29/2019 18:00 655.64 0.00 52.9 82.0 --
05/29/2019 17:00 655.65 0.00 51.3 88.0 --
05/29/2019 16:00 655.64 0.00 50.3 87.0 --
05/29/2019 15:00 655.63 0.00 48.9 98.0 --
05/29/2019 14:00 655.63 0.00 48.9 98.0 --
05/29/2019 13:00 655.63 0.00 47.3 100.0 --
05/29/2019 12:00 655.64 0.00 45.7 100.0 --
05/29/2019 11:00 655.64 0.00 45.0 100.0 --
05/29/2019 10:00 655.63 0.00 44.4 100.0 --
05/29/2019 09:00 655.63 0.00 44.4 100.0 --
05/29/2019 08:00 655.63 0.00 43.3 100.0 --
05/29/2019 07:00 655.63 0.00 42.5 100.0 --
05/29/2019 06:00 655.63 0.00 42.5 100.0 --
05/29/2019 05:00 655.62 0.00 43.3 100.0 --
05/29/2019 04:00 655.62 0.00 43.6 100.0 --
05/29/2019 03:00 655.61 0.01 42.5 100.0 --
05/29/2019 02:00 655.60 0.00 43.0 100.0 --
05/29/2019 01:00 655.60 0.01 43.0 100.0 --
05/29/2019 00:00 655.59 0.00 42.5 100.0 --
05/28/2019 23:00 655.60 0.01 43.3 100.0 --
05/28/2019 22:00 655.60 0.09 43.3 100.0 --
05/28/2019 21:00 655.59 0.00 43.8 100.0 --
05/28/2019 20:00 655.59 0.08 43.8 100.0 --
05/28/2019 19:00 655.56 0.07 43.5 100.0 --
05/28/2019 18:00 655.55 0.04 43.9 100.0 --
05/28/2019 17:00 655.57 0.20 44.0 100.0 --
05/28/2019 16:00 655.55 0.00 46.4 100.0 --
05/28/2019 15:00 655.55 0.08 46.4 100.0 --
05/28/2019 14:00 655.54 0.03 47.8 100.0 --
05/28/2019 13:00 655.55 0.00 53.6 52.0 --
05/28/2019 12:00 655.54 0.00 54.5 51.0 --
05/28/2019 11:00 655.54 0.00 53.6 58.0 --
05/28/2019 10:00 655.54 0.00 53.6 58.0 --
05/28/2019 09:00 655.54 0.00 54.0 65.0 --
05/28/2019 08:00 655.54 0.00 48.7 92.0 --
05/28/2019 07:00 655.54 0.00 48.2 95.0 --
05/28/2019 06:00 655.54 0.00 48.6 92.0 --
05/28/2019 05:00 655.54 0.00 48.6 92.0 --
05/28/2019 04:00 655.54 0.00 47.9 90.0 --
05/28/2019 03:00 655.55 0.00 50.2 86.0 --
05/28/2019 02:00 655.54 0.00 51.9 78.0 --
05/28/2019 01:00 655.54 0.00 54.6 69.0 --
05/28/2019 00:00 655.54 0.00 55.9 66.0 --
05/27/2019 23:00 655.55 0.00 60.8 53.0 --
05/27/2019 22:00 655.54 0.00 64.0 48.0 --
05/27/2019 21:00 655.54 0.00 70.0 40.0 --
05/27/2019 20:00 655.54 0.00 73.4 35.0 --
05/27/2019 19:00 655.54 0.00 73.4 35.0 --
05/27/2019 18:00 655.55 0.00 72.1 38.0 --
05/27/2019 17:00 655.54 0.00 72.4 37.0 --
05/27/2019 16:00 655.53 0.00 71.0 38.0 --
05/27/2019 15:00 655.54 0.00 71.2 38.0 --
05/27/2019 14:00 655.54 0.00 71.2 38.0 --
05/27/2019 13:00 655.54 0.00 69.4 35.0 --
05/27/2019 12:00 655.57 0.00 63.5 50.0 --
05/27/2019 11:00 655.55 0.00 62.7 55.0 --
05/27/2019 10:00 655.56 0.00 61.1 64.0 --
05/27/2019 09:00 655.56 0.00 61.1 64.0 --
05/27/2019 08:00 655.55 0.00 58.9 72.0 --
05/27/2019 07:00 655.55 0.00 55.8 94.0 --
05/27/2019 06:00 655.55 0.00 54.6 100.0 --
05/27/2019 05:00 655.55 0.00 56.3 92.0 --
05/27/2019 04:00 655.55 0.00 58.1 84.0 --
05/27/2019 03:00 655.55 0.00 60.6 78.0 --
05/27/2019 02:00 655.55 0.00 63.9 71.0 --
05/27/2019 01:00 655.55 0.00 63.9 71.0 --
05/27/2019 00:00 655.55 0.00 65.7 65.0 --
05/26/2019 23:00 655.55 0.00 68.2 60.0 --
05/26/2019 22:00 655.54 0.00 69.5 56.0 --
05/26/2019 21:00 655.54 0.00 79.8 32.0 --
05/26/2019 20:00 655.55 0.00 80.1 38.0 --
05/26/2019 19:00 655.57 0.00 80.6 38.0 --
05/26/2019 18:00 655.54 0.00 80.7 40.0 --
05/26/2019 17:00 655.56 0.00 79.4 42.0 --
05/26/2019 16:00 655.61 0.00 79.3 42.0 --
05/26/2019 15:00 655.61 0.00 79.3 42.0 --
05/26/2019 14:00 655.55 0.00 77.1 50.0 --
05/26/2019 13:00 655.57 0.00 72.9 60.0 --
05/26/2019 12:00 655.57 0.00 69.9 65.0 --
05/26/2019 11:00 655.56 0.00 64.9 74.0 --
05/26/2019 10:00 655.56 0.00 64.9 74.0 --
05/26/2019 09:00 655.55 0.00 60.4 81.0 --
05/26/2019 08:00 655.57 0.00 56.4 84.0 --
05/26/2019 07:00 655.57 0.00 55.7 80.0 --
05/26/2019 06:00 655.56 0.00 55.3 77.0 --
05/26/2019 05:00 655.56 0.00 55.3 77.0 --
05/26/2019 04:00 655.55 0.00 55.4 74.0 --
05/26/2019 03:00 655.56 0.00 57.8 64.0 --
05/26/2019 02:00 655.56 0.00 57.8 64.0 --
05/26/2019 01:00 655.57 0.00 61.1 56.0 --
05/26/2019 00:00 655.57 0.00 64.1 59.0 --
05/25/2019 23:00 655.57 0.00 63.4 59.0 --
05/25/2019 22:00 655.56 0.00 64.4 53.0 --
05/25/2019 21:00 655.56 0.00 67.4 46.0 --
05/25/2019 20:00 655.58 0.00 69.6 35.0 --
05/25/2019 19:00 655.56 0.00 71.4 31.0 --
05/25/2019 18:00 655.58 0.00 71.1 30.0 --
05/25/2019 17:00 655.57 0.00 69.6 31.0 --
05/25/2019 16:00 655.57 0.00 69.6 31.0 --
05/25/2019 15:00 655.57 0.00 69.1 38.0 --
05/25/2019 14:00 655.57 0.00 67.9 37.0 --
05/25/2019 13:00 655.58 0.00 66.9 39.0 --
05/25/2019 12:00 655.58 0.00 63.4 49.0 --
05/25/2019 11:00 655.58 0.00 63.4 49.0 --
05/25/2019 10:00 655.58 0.00 58.8 69.0 --
05/25/2019 09:00 655.58 0.00 46.8 100.0 --
05/25/2019 08:00 655.58 0.00 45.1 100.0 --
05/25/2019 07:00 655.58 0.00 46.0 100.0 --
05/25/2019 06:00 655.58 0.00 46.0 100.0 --
05/25/2019 05:00 655.57 0.00 46.1 100.0 --
05/25/2019 04:00 655.58 0.00 47.9 100.0 --
05/25/2019 03:00 655.58 0.00 49.5 100.0 --
05/25/2019 02:00 655.58 0.00 50.8 97.0 --
05/25/2019 01:00 655.57 0.00 51.7 90.0 --
05/25/2019 00:00 655.58 0.00 55.6 78.0 --
05/24/2019 23:00 655.58 0.00 55.6 78.0 --
05/24/2019 22:00 655.58 0.00 57.9 67.0 --
05/24/2019 21:00 655.57 0.00 59.3 63.0 --
05/24/2019 20:00 655.58 0.00 60.3 62.0 --
05/24/2019 19:00 655.56 0.00 61.0 58.0 --
05/24/2019 18:00 655.57 0.00 61.9 59.0 --
05/24/2019 17:00 655.59 0.00 63.0 57.0 --
05/24/2019 16:00 655.58 0.00 63.8 56.0 --
05/24/2019 15:00 655.58 0.00 63.8 56.0 --
05/24/2019 14:00 655.57 0.00 62.5 59.0 --
05/24/2019 13:00 655.56 0.00 60.8 65.0 --
05/24/2019 12:00 655.56 0.01 60.1 67.0 --
05/24/2019 11:00 655.57 0.00 59.9 76.0 --
05/24/2019 10:00 655.57 0.00 59.9 76.0 --
05/24/2019 09:00 655.58 0.00 58.8 81.0 --
05/24/2019 08:00 655.58 0.00 57.8 82.0 --
05/24/2019 07:00 655.59 0.00 58.2 82.0 --
05/24/2019 06:00 655.57 0.00 56.6 97.0 --
05/24/2019 05:00 655.57 0.00 56.6 97.0 --
05/24/2019 04:00 655.58 0.00 57.5 98.0 --
05/24/2019 03:00 655.58 0.00 59.2 92.0 --
05/24/2019 02:00 655.59 0.14 57.9 100.0 --
05/24/2019 01:00 655.56 0.01 59.1 89.0 --
05/24/2019 00:00 655.56 0.00 59.2 84.0 --
05/23/2019 23:00 655.56 0.00 59.8 77.0 --
05/23/2019 22:00 655.56 0.00 60.9 74.0 --
05/23/2019 21:00 655.57 0.00 62.3 70.0 --
05/23/2019 20:00 655.56 0.00 63.0 76.0 --
05/23/2019 19:00 655.57 0.00 63.4 76.0 --
05/23/2019 18:00 655.56 0.00 66.7 64.0 --
05/23/2019 17:00 655.58 0.00 70.0 57.0 --
05/23/2019 16:00 655.58 0.00 70.0 56.0 --
05/23/2019 15:00 655.58 0.00 68.4 55.0 --
05/23/2019 14:00 655.58 0.00 68.4 55.0 --
05/23/2019 13:00 655.57 0.00 66.6 55.0 --
05/23/2019 12:00 655.56 0.00 64.6 55.0 --
05/23/2019 11:00 655.58 0.00 62.0 57.0 --
05/23/2019 10:00 655.58 0.00 54.3 74.0 --
05/23/2019 09:00 655.58 0.00 54.3 74.0 --
05/23/2019 08:00 655.57 0.00 50.7 83.0 --
05/23/2019 07:00 655.57 0.00 49.7 85.0 --
05/23/2019 06:00 655.57 0.00 50.0 83.0 --
05/23/2019 05:00 655.58 0.00 49.4 79.0 --
05/23/2019 04:00 655.57 0.00 49.0 76.0 --
05/23/2019 03:00 655.57 0.00 47.8 76.0 --
05/23/2019 02:00 655.57 0.00 47.8 76.0 --
05/23/2019 01:00 655.57 0.00 51.7 64.0 --
05/23/2019 00:00 655.57 0.00 52.3 67.0 --
05/22/2019 23:00 655.57 0.00 52.4 68.0 --
05/22/2019 22:00 655.57 0.00 57.8 50.0 --
05/22/2019 21:00 655.57 0.00 57.8 50.0 --
05/22/2019 20:00 655.58 0.00 65.7 35.0 --
05/22/2019 19:00 655.56 0.00 66.6 27.0 --
05/22/2019 18:00 655.56 0.00 66.1 25.0 --
05/22/2019 17:00 655.59 0.00 66.1 25.0 --
05/22/2019 16:00 655.59 0.00 66.1 25.0 --
05/22/2019 15:00 655.57 0.00 64.7 26.0 --
05/22/2019 14:00 655.56 0.00 62.5 29.0 --
05/22/2019 13:00 655.58 0.00 60.5 34.0 --
05/22/2019 12:00 655.58 0.00 55.1 42.0 --
05/22/2019 11:00 655.58 0.00 55.1 42.0 --
05/22/2019 10:00 655.57 0.00 52.9 50.0 --
05/22/2019 09:00 655.57 0.00 49.5 63.0 --
05/22/2019 08:00 655.57 0.00 48.9 70.0 --
05/22/2019 07:00 655.58 0.00 48.1 70.0 --
05/22/2019 06:00 655.57 0.00 46.1 74.0 --
05/22/2019 05:00 655.57 0.00 49.3 65.0 --
05/22/2019 04:00 655.57 0.00 49.3 65.0 --
05/22/2019 03:00 655.56 0.00 51.9 55.0 --
05/22/2019 02:00 655.57 0.00 54.4 49.0 --
05/22/2019 01:00 655.57 0.00 54.4 49.0 --
05/22/2019 00:00 655.60 0.00 55.1 46.0 --
05/21/2019 23:00 655.59 0.00 55.8 45.0 --
05/21/2019 22:00 655.56 0.00 56.4 41.0 --
05/21/2019 21:00 655.61 0.00 58.8 39.0 --
05/21/2019 20:00 655.61 0.00 58.2 41.0 --
05/21/2019 19:00 655.58 0.00 58.7 44.0 --
05/21/2019 18:00 655.61 0.00 57.0 45.0 --
05/21/2019 17:00 655.56 0.00 58.1 44.0 --
05/21/2019 16:00 655.62 0.00 58.1 42.0 --
05/21/2019 15:00 655.62 0.00 58.1 42.0 --
05/21/2019 14:00 655.59 0.00 58.0 41.0 --
05/21/2019 13:00 655.63 0.00 55.1 49.0 --
05/21/2019 12:00 655.61 0.00 54.1 48.0 --
05/21/2019 11:00 655.59 0.00 53.4 55.0 --
05/21/2019 10:00 655.59 0.00 53.4 55.0 --
05/21/2019 09:00 655.56 0.00 52.8 58.0 --
05/21/2019 08:00 655.58 0.00 53.9 62.0 --
05/21/2019 07:00 655.58 0.00 54.0 63.0 --
05/21/2019 06:00 655.60 0.00 55.1 63.0 --
05/21/2019 05:00 655.60 0.00 55.1 63.0 --
05/21/2019 04:00 655.60 0.00 56.7 58.0 --
05/21/2019 03:00 655.56 0.00 61.4 54.0 --
05/21/2019 02:00 655.63 0.00 64.4 58.0 --
05/21/2019 01:00 655.62 0.00 67.6 60.0 --
05/21/2019 00:00 655.62 0.00 67.6 60.0 --
05/20/2019 23:00 655.60 0.00 63.9 100.0 --
05/20/2019 22:00 655.62 0.02 65.4 100.0 --
05/20/2019 21:00 655.62 0.00 69.2 84.0 --
05/20/2019 20:00 655.61 0.00 78.0 48.0 --
05/20/2019 19:00 655.64 0.00 78.4 48.0 --
05/20/2019 18:00 655.62 0.00 78.2 52.0 --
05/20/2019 17:00 655.62 0.00 76.0 60.0 --
05/20/2019 16:00 655.63 0.00 75.7 59.0 --
05/20/2019 15:00 655.62 0.00 74.6 62.0 --
05/20/2019 14:00 655.62 0.01 74.6 62.0 --
05/20/2019 13:00 655.61 0.00 70.1 75.0 --
05/20/2019 12:00 655.62 0.00 69.5 80.0 --
05/20/2019 11:00 655.61 0.00 67.9 84.0 --
05/20/2019 10:00 655.62 0.00 67.8 84.0 --
05/20/2019 09:00 655.63 0.00 68.0 82.0 --
05/20/2019 08:00 655.62 0.00 66.8 87.0 --
05/20/2019 07:00 655.63 0.00 67.8 86.0 --
05/20/2019 06:00 655.63 0.00 67.8 86.0 --
05/20/2019 05:00 655.63 0.00 68.1 88.0 --
05/20/2019 04:00 655.61 0.00 64.2 100.0 --
05/20/2019 03:00 655.61 0.00 63.6 100.0 --
05/20/2019 02:00 655.61 0.00 65.2 98.0 --
05/20/2019 01:00 655.63 0.00 66.8 89.0 --
05/20/2019 00:00 655.61 0.00 68.9 82.0 --
05/19/2019 23:00 655.61 0.00 68.9 82.0 --
05/19/2019 22:00 655.62 0.00 70.3 76.0 --
05/19/2019 21:00 655.62 0.00 72.7 66.0 --
05/19/2019 20:00 655.62 0.00 75.3 59.0 --
05/19/2019 19:00 655.62 0.00 75.2 57.0 --
05/19/2019 18:00 655.62 0.00 72.9 61.0 --
05/19/2019 17:00 655.62 0.00 68.6 67.0 --
05/19/2019 16:00 655.61 0.00 65.3 74.0 --
05/19/2019 15:00 655.64 0.00 61.7 80.0 --
05/19/2019 14:00 655.62 0.00 58.6 88.0 --
05/19/2019 13:00 655.62 0.00 58.6 88.0 --
05/19/2019 12:00 655.61 0.03 55.9 85.0 --
05/19/2019 11:00 655.61 0.00 52.6 78.0 --
05/19/2019 10:00 655.62 0.00 52.6 76.0 --
05/19/2019 09:00 655.60 0.00 50.7 81.0 --
05/19/2019 08:00 655.60 0.00 50.7 81.0 --
05/19/2019 07:00 655.61 0.00 50.7 83.0 --
05/19/2019 06:00 655.62 0.00 50.7 82.0 --
05/19/2019 05:00 655.60 0.00 51.1 79.0 --
05/19/2019 04:00 655.60 0.00 51.2 79.0 --
05/19/2019 03:00 655.61 0.00 52.6 75.0 --
05/19/2019 02:00 655.60 0.00 53.5 71.0 --
05/19/2019 01:00 655.60 0.00 54.7 70.0 --
05/19/2019 00:00 655.60 0.00 57.1 60.0 --
05/18/2019 23:00 655.59 0.00 60.3 53.0 --
05/18/2019 22:00 655.59 0.00 60.3 53.0 --
05/18/2019 21:00 655.59 0.00 62.1 47.0 --
05/18/2019 20:00 655.59 0.00 69.0 32.0 --
05/18/2019 19:00 655.58 0.00 69.0 29.0 --
05/18/2019 18:00 655.57 0.00 67.7 30.0 --
05/18/2019 17:00 655.57 0.00 67.7 30.0 --
05/18/2019 16:00 655.58 0.00 65.2 35.0 --
05/18/2019 15:00 655.56 0.00 63.0 36.0 --
05/18/2019 14:00 655.55 0.00 60.2 43.0 --
05/18/2019 13:00 655.54 0.00 58.1 50.0 --
05/18/2019 12:00 655.54 0.00 58.1 50.0 --
05/18/2019 11:00 655.55 0.00 55.8 52.0 --
05/18/2019 10:00 655.51 0.00 53.3 52.0 --
05/18/2019 09:00 655.53 0.00 52.2 56.0 --
05/18/2019 08:00 655.51 0.00 49.6 58.0 --
05/18/2019 07:00 655.51 0.00 49.6 58.0 --
05/18/2019 06:00 655.49 0.00 50.1 58.0 --
05/18/2019 05:00 655.48 0.00 55.1 58.0 --
05/18/2019 04:00 655.45 0.00 52.8 81.0 --
05/18/2019 03:00 655.43 0.00 54.2 77.0 --
05/18/2019 02:00 655.43 0.00 54.2 77.0 --
05/18/2019 01:00 655.41 0.00 59.6 59.0 --
05/18/2019 00:00 655.40 0.00 60.1 91.0 --
05/17/2019 23:00 655.38 0.00 62.0 87.0 --
05/17/2019 22:00 655.36 0.00 64.5 77.0 --
05/17/2019 21:00 655.36 0.00 64.5 77.0 --
05/17/2019 20:00 655.35 0.00 67.3 68.0 --
05/17/2019 19:00 655.30 0.00 66.9 65.0 --
05/17/2019 18:00 655.30 0.00 64.2 68.0 --
05/17/2019 17:00 655.29 0.00 63.7 66.0 --
05/17/2019 16:00 655.29 0.00 63.7 66.0 --
05/17/2019 15:00 655.28 0.00 61.7 74.0 --
05/17/2019 14:00 655.25 0.00 52.5 90.0 --
05/17/2019 13:00 655.23 0.00 50.5 100.0 --
05/17/2019 12:00 655.22 0.00 47.8 100.0 --
05/17/2019 11:00 655.22 0.04 47.8 100.0 --
05/17/2019 10:00 655.20 0.05 46.3 100.0 --
05/17/2019 09:00 655.17 0.01 44.8 100.0 --
05/17/2019 08:00 655.15 0.01 44.9 100.0 --
05/17/2019 07:00 655.13 0.00 44.9 100.0 --
05/17/2019 06:00 655.12 0.00 44.2 100.0 --
05/17/2019 05:00 655.10 0.00 44.4 100.0 --
05/17/2019 04:00 655.08 0.00 45.0 100.0 --
05/17/2019 03:00 655.08 0.00 45.0 100.0 --
05/17/2019 02:00 655.07 0.00 46.7 97.0 --
05/17/2019 01:00 655.05 0.00 48.9 90.0 --
05/17/2019 00:00 655.04 0.00 50.5 82.0 --
05/16/2019 23:00 655.02 0.00 51.4 78.0 --
05/16/2019 22:00 655.01 0.00 51.3 75.0 --
05/16/2019 21:00 654.98 0.00 63.5 42.0 --
05/16/2019 20:00 654.94 0.00 61.7 42.0 --
05/16/2019 19:00 654.93 0.00 62.2 41.0 --
05/16/2019 18:00 654.93 0.00 62.2 41.0 --
05/16/2019 17:00 654.93 0.00 62.2 41.0 --
05/16/2019 16:00 654.89 0.00 61.7 39.0 --
05/16/2019 15:00 654.89 0.00 61.7 39.0 --
05/16/2019 14:00 654.88 0.00 58.7 46.0 --
05/16/2019 13:00 654.86 0.00 56.9 52.0 --
05/16/2019 12:00 654.83 0.00 56.5 52.0 --
05/16/2019 11:00 654.81 0.00 54.4 60.0 --
05/16/2019 10:00 654.81 0.00 54.4 60.0 --
05/16/2019 09:00 654.78 0.00 48.0 87.0 --
05/16/2019 08:00 654.76 0.00 43.6 100.0 --
05/16/2019 07:00 654.74 0.00 43.6 100.0 --
05/16/2019 06:00 654.71 0.00 43.1 100.0 --
05/16/2019 05:00 654.71 0.00 43.1 100.0 --
05/16/2019 04:00 654.70 0.00 45.6 100.0 --
05/16/2019 03:00 654.66 0.00 47.2 97.0 --
05/16/2019 02:00 654.66 0.00 47.2 97.0 --
05/16/2019 01:00 654.65 0.00 47.5 98.0 --
05/16/2019 00:00 654.63 0.00 47.8 96.0 --
05/15/2019 23:00 654.61 0.01 48.1 94.0 --
05/15/2019 22:00 654.56 0.00 51.5 67.0 --
05/15/2019 21:00 654.55 0.00 55.2 48.0 --
05/15/2019 20:00 654.50 0.00 56.5 46.0 --
05/15/2019 19:00 654.52 0.00 54.5 48.0 --
05/15/2019 18:00 654.49 0.00 52.2 56.0 --
05/15/2019 17:00 654.47 0.00 50.9 58.0 --
05/15/2019 16:00 654.47 0.00 50.9 58.0 --
05/15/2019 15:00 654.45 0.00 50.1 58.0 --
05/15/2019 14:00 654.43 0.00 49.3 62.0 --
05/15/2019 13:00 654.38 0.00 49.5 62.0 --
05/15/2019 12:00 654.34 0.00 44.8 77.0 --
05/15/2019 11:00 654.34 0.00 44.8 77.0 --
05/15/2019 10:00 654.33 0.00 45.1 76.0 --
05/15/2019 09:00 654.28 0.00 40.9 100.0 --
05/15/2019 08:00 654.25 0.00 38.7 100.0 --
05/15/2019 07:00 654.23 0.00 39.6 100.0 --
05/15/2019 06:00 654.23 0.00 39.6 100.0 --
05/15/2019 05:00 654.21 0.00 39.5 100.0 --
05/15/2019 04:00 654.15 0.00 40.4 100.0 --
05/15/2019 03:00 654.13 0.00 40.8 100.0 --
05/15/2019 02:00 654.11 0.00 40.4 100.0 --
05/15/2019 01:00 654.11 0.00 40.4 100.0 --
05/15/2019 00:00 654.07 0.00 40.7 100.0 --
05/14/2019 23:00 654.05 0.00 40.9 100.0 --
05/14/2019 22:00 654.03 0.00 41.3 100.0 --
05/14/2019 21:00 653.97 0.00 44.1 84.0 --
05/14/2019 20:00 653.95 0.00 44.9 79.0 --
05/14/2019 19:00 653.91 0.00 45.4 76.0 --
05/14/2019 18:00 653.91 0.00 45.4 76.0 --
05/14/2019 17:00 653.88 0.00 44.3 79.0 --
05/14/2019 16:00 653.84 0.00 41.9 92.0 --
05/14/2019 15:00 653.83 0.00 41.6 89.0 --
05/14/2019 14:00 653.81 0.00 41.1 100.0 --
05/14/2019 13:00 653.81 0.00 41.1 100.0 --
05/14/2019 12:00 653.78 0.00 39.6 100.0 --
05/14/2019 11:00 653.76 0.00 37.8 100.0 --
05/14/2019 10:00 653.74 0.00 37.7 100.0 --
05/14/2019 09:00 653.72 0.00 37.0 100.0 --
05/14/2019 08:00 653.72 0.00 37.0 100.0 --
05/14/2019 07:00 653.70 0.00 36.6 100.0 --
05/14/2019 06:00 653.68 0.00 36.9 100.0 --
05/14/2019 05:00 653.66 0.05 37.2 100.0 --
05/14/2019 04:00 653.63 0.00 37.4 100.0 --
05/14/2019 03:00 653.63 0.05 37.4 100.0 --
05/14/2019 02:00 653.61 0.10 37.4 100.0 --
05/14/2019 01:00 653.58 0.05 37.6 100.0 --
05/14/2019 00:00 653.56 0.12 38.3 100.0 --
05/13/2019 23:00 653.54 0.02 40.3 100.0 --
05/13/2019 22:00 653.53 0.05 40.8 100.0 --
05/13/2019 21:00 653.51 0.00 40.8 100.0 --
05/13/2019 20:00 653.51 0.06 40.8 100.0 --
05/13/2019 19:00 653.50 0.01 43.5 84.0 --
05/13/2019 18:00 653.47 0.00 50.6 54.0 --
05/13/2019 17:00 653.48 0.00 52.6 51.0 --
05/13/2019 16:00 653.46 0.00 52.4 49.0 --
05/13/2019 15:00 653.46 0.00 52.4 49.0 --
05/13/2019 14:00 653.46 0.00 53.8 45.0 --
05/13/2019 13:00 653.45 0.00 52.5 44.0 --
05/13/2019 12:00 653.43 0.00 52.3 44.0 --
05/13/2019 11:00 653.42 0.00 50.5 57.0 --
05/13/2019 10:00 653.43 0.00 47.0 65.0 --
05/13/2019 09:00 653.43 0.00 40.0 95.0 --
05/13/2019 08:00 653.43 0.00 40.0 95.0 --
05/13/2019 07:00 653.42 0.00 38.4 100.0 --
05/13/2019 06:00 653.43 0.00 41.5 91.0 --
05/13/2019 05:00 653.42 0.00 42.5 86.0 --
05/13/2019 04:00 653.43 0.00 42.9 83.0 --
05/13/2019 03:00 653.43 0.00 42.9 83.0 --
05/13/2019 02:00 653.42 0.00 44.2 78.0 --
05/13/2019 01:00 653.41 0.00 45.1 72.0 --
05/13/2019 00:00 653.42 0.00 45.6 70.0 --
05/12/2019 23:00 653.42 0.00 45.6 69.0 --
05/12/2019 22:00 653.42 0.00 45.6 69.0 --
05/12/2019 21:00 653.42 0.00 47.6 58.0 --
05/12/2019 20:00 653.41 0.00 48.3 57.0 --
05/12/2019 19:00 653.41 0.00 49.1 51.0 --
05/12/2019 18:00 653.41 0.00 49.4 44.0 --
05/12/2019 17:00 653.41 0.00 49.4 44.0 --
05/12/2019 16:00 653.40 0.00 49.1 43.0 --
05/12/2019 15:00 653.39 0.00 49.9 40.0 --
05/12/2019 14:00 653.40 0.00 49.3 38.0 --
05/12/2019 13:00 653.39 0.00 48.4 41.0 --
05/12/2019 12:00 653.39 0.00 48.4 41.0 --
05/12/2019 11:00 653.39 0.00 47.9 53.0 --
05/12/2019 10:00 653.37 0.00 44.9 77.0 --
05/12/2019 09:00 653.38 0.00 44.4 78.0 --
05/12/2019 08:00 653.37 0.00 43.4 80.0 --
05/12/2019 07:00 653.37 0.00 43.4 80.0 --
05/12/2019 06:00 653.37 0.00 43.2 76.0 --
05/12/2019 05:00 653.37 0.00 43.8 71.0 --
05/12/2019 04:00 653.35 0.00 43.5 69.0 --
05/12/2019 03:00 653.35 0.00 45.0 63.0 --
05/12/2019 02:00 653.35 0.00 46.6 59.0 --
05/12/2019 01:00 653.34 0.00 47.2 54.0 --
05/12/2019 00:00 653.33 0.00 49.9 48.0 --
05/11/2019 23:00 653.33 0.00 50.9 52.0 --
05/11/2019 22:00 653.34 0.00 55.0 41.0 --
05/11/2019 21:00 653.34 0.00 55.0 41.0 --
05/11/2019 20:00 653.33 0.00 58.8 33.0 --
05/11/2019 19:00 653.31 0.00 59.3 32.0 --
05/11/2019 18:00 653.31 0.00 59.5 33.0 --
05/11/2019 17:00 653.29 0.00 59.4 34.0 --
05/11/2019 16:00 653.26 0.00 57.4 36.0 --
05/11/2019 15:00 653.28 0.00 55.5 41.0 --
05/11/2019 14:00 653.24 0.00 54.5 45.0 --
05/11/2019 13:00 653.25 0.01 52.5 54.0 --
05/11/2019 12:00 653.23 0.00 50.9 67.0 --
05/11/2019 11:00 653.23 0.00 50.9 67.0 --
05/11/2019 10:00 653.23 0.00 50.5 74.0 --
05/11/2019 09:00 653.22 0.00 49.6 87.0 --
05/11/2019 08:00 653.21 0.00 46.9 100.0 --
05/11/2019 07:00 653.20 0.00 47.0 100.0 --
05/11/2019 06:00 653.20 0.00 47.0 100.0 --
05/11/2019 05:00 653.18 0.00 48.1 100.0 --
05/11/2019 04:00 653.18 0.00 48.6 100.0 --
05/11/2019 03:00 653.16 0.00 51.0 100.0 --
05/11/2019 02:00 653.14 0.00 49.4 100.0 --
05/11/2019 01:00 653.14 0.00 49.4 100.0 --
05/11/2019 00:00 653.12 0.00 49.5 100.0 --
05/10/2019 23:00 653.09 0.00 49.7 100.0 --
05/10/2019 22:00 653.08 0.00 50.9 100.0 --
05/10/2019 21:00 653.06 0.00 50.7 100.0 --
05/10/2019 20:00 653.05 0.00 50.6 100.0 --
05/10/2019 19:00 653.03 0.00 51.9 100.0 --
05/10/2019 18:00 653.03 0.02 51.9 100.0 --
05/10/2019 17:00 653.02 0.06 52.1 100.0 --
05/10/2019 16:00 652.98 0.00 50.3 100.0 --
05/10/2019 15:00 652.98 0.03 50.3 100.0 --
05/10/2019 14:00 652.96 0.03 49.0 100.0 --
05/10/2019 13:00 652.95 0.00 47.9 82.0 --
05/10/2019 12:00 652.95 0.00 47.9 82.0 --
05/10/2019 11:00 652.95 0.00 47.1 79.0 --
05/10/2019 10:00 652.95 0.00 43.4 100.0 --
05/10/2019 09:00 652.96 0.00 42.6 100.0 --
05/10/2019 08:00 652.96 0.00 43.1 100.0 --
05/10/2019 07:00 652.96 0.00 43.1 100.0 --
05/10/2019 06:00 652.95 0.00 42.9 100.0 --
05/10/2019 05:00 652.95 0.01 43.7 100.0 --
05/10/2019 04:00 652.95 0.03 43.6 100.0 --
05/10/2019 03:00 652.93 0.00 43.8 100.0 --
05/10/2019 02:00 652.93 0.01 43.8 100.0 --
05/10/2019 01:00 652.95 0.03 43.4 95.0 --
05/10/2019 00:00 652.93 0.00 49.5 57.0 --
05/09/2019 23:00 652.93 0.00 52.1 46.0 --
05/09/2019 22:00 652.92 0.00 54.9 45.0 --
05/09/2019 21:00 652.92 0.00 54.9 45.0 --
05/09/2019 20:00 652.94 0.00 59.6 35.0 --
05/09/2019 19:00 652.93 0.00 63.2 27.0 --
05/09/2019 18:00 652.93 0.00 63.2 27.0 --
05/09/2019 17:00 652.92 0.00 62.2 28.0 --
05/09/2019 16:00 652.93 0.00 62.3 27.0 --
05/09/2019 15:00 652.93 0.00 61.0 27.0 --
05/09/2019 14:00 652.92 0.00 54.9 31.0 --
05/09/2019 13:00 652.92 0.00 52.5 31.0 --
05/09/2019 12:00 652.92 0.00 50.1 34.0 --
05/09/2019 11:00 652.92 0.00 50.1 34.0 --
05/09/2019 10:00 652.91 0.00 50.0 36.0 --
05/09/2019 09:00 652.91 0.00 38.0 80.0 --
05/09/2019 08:00 652.91 0.00 38.0 80.0 --
05/09/2019 07:00 652.91 0.00 35.2 82.0 --
05/09/2019 06:00 652.90 0.00 34.5 83.0 --
05/09/2019 05:00 652.90 0.00 34.1 82.0 --
05/09/2019 04:00 652.90 0.00 39.7 68.0 --
05/09/2019 03:00 652.89 0.00 40.9 68.0 --
05/09/2019 02:00 652.88 0.00 41.8 64.0 --
05/09/2019 01:00 652.88 0.00 41.8 64.0 --
05/09/2019 00:00 652.89 0.00 43.8 59.0 --
05/08/2019 23:00 652.88 0.00 47.3 47.0 --
05/08/2019 22:00 652.86 0.00 48.8 42.0 --
05/08/2019 21:00 652.88 0.00 57.4 19.0 --
05/08/2019 20:00 652.88 0.00 57.4 19.0 --
05/08/2019 19:00 652.87 0.00 58.5 15.0 --
05/08/2019 18:00 652.87 0.00 59.6 18.0 --
05/08/2019 17:00 652.84 0.00 59.7 21.0 --
05/08/2019 16:00 652.84 0.00 58.8 33.0 --
05/08/2019 15:00 652.83 0.00 56.8 39.0 --
05/08/2019 14:00 652.81 0.00 54.9 41.0 --
05/08/2019 13:00 652.81 0.00 54.9 41.0 --
05/08/2019 12:00 652.82 0.00 53.0 50.0 --
05/08/2019 11:00 652.79 0.00 48.7 59.0 --
05/08/2019 10:00 652.79 0.00 46.6 73.0 --
05/08/2019 09:00 652.77 0.00 42.9 100.0 --
05/08/2019 08:00 652.77 0.00 42.9 100.0 --
05/08/2019 07:00 652.77 0.00 43.2 100.0 --
05/08/2019 06:00 652.75 0.00 44.1 100.0 --
05/08/2019 05:00 652.75 0.00 44.1 100.0 --
05/08/2019 04:00 652.74 0.00 44.8 100.0 --
05/08/2019 03:00 652.73 0.00 46.3 100.0 --
05/08/2019 02:00 652.72 0.00 47.7 100.0 --
05/08/2019 01:00 652.70 0.00 51.2 100.0 --
05/08/2019 00:00 652.69 0.00 52.9 100.0 --
05/07/2019 23:00 652.68 0.00 53.6 100.0 --
05/07/2019 22:00 652.68 0.01 53.6 100.0 --
05/07/2019 21:00 652.67 0.02 55.5 100.0 --
05/07/2019 20:00 652.64 0.04 56.5 99.0 --
05/07/2019 19:00 652.64 0.00 58.2 83.0 --
05/07/2019 18:00 652.63 0.00 63.4 61.0 --
05/07/2019 17:00 652.61 0.00 65.7 52.0 --
05/07/2019 16:00 652.60 0.00 65.5 54.0 --
05/07/2019 15:00 652.58 0.00 63.0 58.0 --
05/07/2019 14:00 652.56 0.00 59.8 64.0 --
05/07/2019 13:00 652.56 0.00 58.3 64.0 --
05/07/2019 12:00 652.56 0.00 58.3 64.0 --
05/07/2019 11:00 652.54 0.00 55.2 70.0 --
05/07/2019 10:00 652.51 0.00 52.4 76.0 --
05/07/2019 09:00 652.49 0.00 49.0 90.0 --
05/07/2019 08:00 652.48 0.00 42.7 100.0 --
05/07/2019 07:00 652.48 0.00 42.7 100.0 --
05/07/2019 06:00 652.45 0.00 43.3 100.0 --
05/07/2019 05:00 652.43 0.00 43.5 97.0 --
05/07/2019 04:00 652.41 0.00 43.5 95.0 --
05/07/2019 03:00 652.39 0.00 43.2 95.0 --
05/07/2019 02:00 652.39 0.00 43.2 95.0 --
05/07/2019 01:00 652.38 0.00 44.3 86.0 --
05/07/2019 00:00 652.34 0.00 48.8 70.0 --
05/06/2019 23:00 652.32 0.00 50.8 63.0 --
05/06/2019 22:00 652.30 0.00 57.3 45.0 --
05/06/2019 21:00 652.30 0.00 57.3 45.0 --
05/06/2019 20:00 652.29 0.00 61.9 39.0 --
05/06/2019 19:00 652.24 0.00 64.7 40.0 --
05/06/2019 18:00 652.22 0.00 64.1 46.0 --
05/06/2019 17:00 652.20 0.00 65.5 43.0 --
05/06/2019 16:00 652.20 0.00 65.5 43.0 --
05/06/2019 15:00 652.17 0.01 62.8 48.0 --
05/06/2019 14:00 652.25 0.00 58.7 55.0 --
05/06/2019 13:00 652.26 0.00 54.1 69.0 --
05/06/2019 12:00 652.26 0.00 54.1 69.0 --
05/06/2019 11:00 652.26 0.00 51.8 80.0 --
05/06/2019 10:00 652.26 0.00 51.5 90.0 --
05/06/2019 09:00 652.27 0.00 50.8 100.0 --
05/06/2019 08:00 652.28 0.00 45.1 100.0 --
05/06/2019 07:00 652.29 0.00 45.2 100.0 --
05/06/2019 06:00 652.29 0.00 45.2 100.0 --
05/06/2019 05:00 652.29 0.00 45.2 100.0 --
05/06/2019 04:00 652.29 0.00 46.3 100.0 --
05/06/2019 03:00 652.30 0.00 48.3 100.0 --
05/06/2019 02:00 652.30 0.00 48.3 100.0 --
05/06/2019 01:00 652.31 0.00 48.8 100.0 --
05/06/2019 00:00 652.31 0.00 49.3 100.0 --
05/05/2019 23:00 652.32 0.00 49.9 100.0 --
05/05/2019 22:00 652.32 0.00 52.1 100.0 --
05/05/2019 21:00 652.32 0.00 52.1 100.0 --
05/05/2019 20:00 652.32 0.00 53.3 100.0 --
05/05/2019 19:00 652.32 0.00 53.8 99.0 --
05/05/2019 18:00 652.33 0.00 53.8 100.0 --
05/05/2019 17:00 652.34 0.00 53.0 99.0 --
05/05/2019 16:00 652.34 0.00 53.0 99.0 --
05/05/2019 15:00 652.35 0.00 52.5 97.0 --
05/05/2019 14:00 652.35 0.00 52.7 100.0 --
05/05/2019 13:00 652.35 0.00 52.1 100.0 --
05/05/2019 12:00 652.36 0.00 51.2 100.0 --
05/05/2019 11:00 652.36 0.00 51.2 100.0 --
05/05/2019 10:00 652.36 0.00 51.2 100.0 --
05/05/2019 09:00 652.36 0.00 51.2 100.0 --
05/05/2019 08:00 652.37 0.00 51.3 100.0 --
05/05/2019 07:00 652.37 0.00 52.3 100.0 --
05/05/2019 06:00 652.37 0.00 52.3 100.0 --
05/05/2019 05:00 652.37 0.00 52.2 100.0 --
05/05/2019 04:00 652.38 0.00 52.7 100.0 --
05/05/2019 03:00 652.38 0.00 53.2 100.0 --
05/05/2019 02:00 652.38 0.00 53.7 100.0 --
05/05/2019 01:00 652.38 0.00 53.7 100.0 --
05/05/2019 00:00 652.37 0.00 55.0 100.0 --
05/04/2019 23:00 652.37 0.00 56.5 100.0 --
05/04/2019 22:00 652.37 0.00 58.7 90.0 --
05/04/2019 21:00 652.38 0.00 63.1 79.0 --
05/04/2019 20:00 652.38 0.00 63.1 79.0 --
05/04/2019 19:00 652.38 0.00 63.5 77.0 --
05/04/2019 18:00 652.38 0.00 62.6 75.0 --
05/04/2019 17:00 652.37 0.00 61.8 81.0 --
05/04/2019 16:00 652.38 0.00 60.5 85.0 --
05/04/2019 15:00 652.38 0.00 60.5 85.0 --
05/04/2019 14:00 652.37 0.00 59.4 92.0 --
05/04/2019 13:00 652.37 0.00 54.2 100.0 --
05/04/2019 12:00 652.37 0.00 49.4 100.0 --
05/04/2019 11:00 652.37 0.00 49.1 100.0 --
05/04/2019 10:00 652.37 0.00 49.1 100.0 --
05/04/2019 09:00 652.37 0.00 46.8 100.0 --
05/04/2019 08:00 652.36 0.00 45.1 100.0 --
05/04/2019 07:00 652.37 0.00 45.3 100.0 --
05/04/2019 06:00 652.36 0.00 45.5 100.0 --
05/04/2019 05:00 652.36 0.00 45.5 100.0 --
05/04/2019 04:00 652.36 0.00 45.7 100.0 --
05/04/2019 03:00 652.35 0.00 46.1 100.0 --
05/04/2019 02:00 652.36 0.00 46.8 100.0 --
05/04/2019 01:00 652.35 0.00 47.3 100.0 --
05/04/2019 00:00 652.35 0.04 47.3 100.0 --
05/03/2019 23:00 652.35 0.04 47.7 100.0 --
05/03/2019 22:00 652.35 0.01 48.4 100.0 --
05/03/2019 21:00 652.35 0.00 48.7 100.0 --
05/03/2019 20:00 652.35 0.00 48.6 100.0 --
05/03/2019 19:00 652.35 0.00 48.6 100.0 --
05/03/2019 18:00 652.36 0.00 48.3 100.0 --
05/03/2019 17:00 652.37 0.00 46.5 100.0 --
05/03/2019 16:00 652.36 0.12 45.6 100.0 --
05/03/2019 15:00 652.35 0.00 44.5 100.0 --
05/03/2019 14:00 652.35 0.03 44.5 100.0 --
05/03/2019 13:00 652.35 0.00 44.0 100.0 --
05/03/2019 12:00 652.36 0.00 43.9 100.0 --
05/03/2019 11:00 652.37 0.00 42.8 100.0 --
05/03/2019 10:00 652.37 0.00 41.5 100.0 --
05/03/2019 09:00 652.38 0.00 40.8 100.0 --
05/03/2019 08:00 652.37 0.00 40.5 100.0 --
05/03/2019 07:00 652.39 0.00 40.5 100.0 --
05/03/2019 06:00 652.39 0.00 40.7 100.0 --
05/03/2019 05:00 652.39 0.00 40.6 100.0 --
05/03/2019 04:00 652.39 0.00 40.6 100.0 --
05/03/2019 03:00 652.39 0.00 40.7 100.0 --
05/03/2019 02:00 652.39 0.00 41.0 100.0 --
05/03/2019 01:00 652.41 0.00 41.1 100.0 --
05/03/2019 00:00 652.41 0.00 41.4 100.0 --
05/02/2019 23:00 652.41 0.00 41.4 100.0 --
05/02/2019 22:00 652.41 0.00 41.5 100.0 --
05/02/2019 21:00 652.43 0.00 41.7 100.0 --
05/02/2019 20:00 652.43 0.00 42.2 100.0 --
05/02/2019 19:00 652.43 0.00 43.3 100.0 --
05/02/2019 18:00 652.43 0.00 43.3 100.0 --
05/02/2019 17:00 652.44 0.00 42.9 100.0 --
05/02/2019 16:00 652.43 0.00 42.9 100.0 --
05/02/2019 15:00 652.44 0.00 43.1 100.0 --
05/02/2019 14:00 652.46 0.00 43.4 100.0 --
05/02/2019 13:00 652.46 0.00 43.4 100.0 --
05/02/2019 12:00 652.45 0.00 43.5 100.0 --
05/02/2019 11:00 652.47 0.00 42.9 100.0 --
05/02/2019 10:00 652.48 0.00 43.0 100.0 --
05/02/2019 09:00 652.48 0.00 43.3 100.0 --
05/02/2019 08:00 652.48 0.00 43.3 100.0 --
05/02/2019 07:00 652.50 0.00 44.0 100.0 --
05/02/2019 06:00 652.49 0.00 44.4 100.0 --
05/02/2019 05:00 652.50 0.03 44.6 100.0 --
05/02/2019 04:00 652.51 0.00 44.7 100.0 --
05/02/2019 03:00 652.51 0.06 44.7 100.0 --
05/02/2019 02:00 652.51 0.05 45.0 94.0 --
05/02/2019 01:00 652.51 0.00 48.1 61.0 --
05/02/2019 00:00 652.52 0.00 48.2 58.0 --
05/01/2019 23:00 652.55 0.00 48.6 52.0 --
05/01/2019 22:00 652.55 0.00 48.6 52.0 --
05/01/2019 21:00 652.55 0.00 48.4 64.0 --
05/01/2019 20:00 652.56 0.00 50.0 56.0 --
05/01/2019 19:00 652.57 0.00 51.0 48.0 --
05/01/2019 18:00 652.59 0.00 50.3 41.0 --
05/01/2019 17:00 652.61 0.00 49.4 46.0 --
05/01/2019 16:00 652.61 0.00 48.7 43.0 --
05/01/2019 15:00 652.61 0.00 48.7 43.0 --
05/01/2019 14:00 652.62 0.00 47.8 40.0 --
05/01/2019 13:00 652.64 0.00 47.2 38.0 --
05/01/2019 12:00 652.64 0.00 47.2 38.0 --
05/01/2019 11:00 652.66 0.00 46.1 45.0 --
05/01/2019 10:00 652.66 0.00 44.7 54.0 --
05/01/2019 09:00 652.68 0.00 42.2 72.0 --
05/01/2019 08:00 652.70 0.00 40.4 85.0 --
05/01/2019 07:00 652.70 0.00 40.4 85.0 --
05/01/2019 06:00 652.71 0.00 40.4 80.0 --
05/01/2019 05:00 652.73 0.00 39.7 84.0 --
05/01/2019 04:00 652.74 0.00 39.6 83.0 --
05/01/2019 03:00 652.77 0.00 38.3 91.0 --
05/01/2019 02:00 652.78 0.00 37.0 97.0 --
05/01/2019 01:00 652.80 0.00 37.7 98.0 --
05/01/2019 00:00 652.80 0.00 37.7 98.0 --
04/30/2019 23:00 652.81 0.00 39.1 90.0 --
04/30/2019 22:00 652.84 0.00 43.5 74.0 --
04/30/2019 21:00 652.86 0.00 46.8 61.0 --
04/30/2019 20:00 652.88 0.00 46.4 65.0 --
04/30/2019 19:00 652.88 0.00 44.4 75.0 --
04/30/2019 18:00 652.91 0.00 46.6 76.0 --
04/30/2019 17:00 652.91 0.00 44.4 87.0 --
04/30/2019 16:00 652.91 0.00 44.4 87.0 --
04/30/2019 15:00 652.93 0.00 43.6 91.0 --
04/30/2019 14:00 652.97 0.00 41.7 100.0 --
04/30/2019 13:00 652.99 0.00 41.2 100.0 --
04/30/2019 12:00 653.00 0.00 40.3 100.0 --
04/30/2019 11:00 653.00 0.00 40.3 100.0 --
04/30/2019 10:00 653.02 0.00 39.6 100.0 --
04/30/2019 09:00 653.06 0.00 39.3 100.0 --
04/30/2019 08:00 653.08 0.01 39.3 100.0 --
04/30/2019 07:00 653.10 0.00 40.1 100.0 --
04/30/2019 06:00 653.10 0.00 40.1 100.0 --
04/30/2019 05:00 653.12 0.00 40.4 100.0 --
04/30/2019 04:00 653.15 0.01 41.9 86.0 --
04/30/2019 03:00 653.17 0.00 42.3 84.0 --
04/30/2019 02:00 653.19 0.00 45.4 66.0 --
04/30/2019 01:00 653.19 0.00 45.4 66.0 --
04/30/2019 00:00 653.21 0.00 44.7 57.0 --
04/29/2019 23:00 653.24 0.00 45.6 54.0 --
04/29/2019 22:00 653.26 0.00 45.9 51.0 --
04/29/2019 21:00 653.30 0.00 51.1 28.0 --
04/29/2019 20:00 653.30 0.00 51.1 28.0 --
04/29/2019 19:00 653.35 0.00 52.3 26.0 --
04/29/2019 18:00 653.37 0.00 52.8 22.0 --
04/29/2019 17:00 653.41 0.00 51.2 25.0 --
04/29/2019 16:00 653.43 0.00 50.4 25.0 --
04/29/2019 15:00 653.43 0.00 47.9 27.0 --
04/29/2019 14:00 653.47 0.00 46.3 31.0 --
04/29/2019 13:00 653.49 0.00 43.7 33.0 --
04/29/2019 12:00 653.54 0.00 42.5 38.0 --
04/29/2019 11:00 653.55 0.00 40.9 41.0 --
04/29/2019 10:00 653.55 0.00 40.9 41.0 --
04/29/2019 09:00 653.57 0.00 39.6 61.0 --
04/29/2019 08:00 653.62 0.00 31.4 97.0 --
04/29/2019 07:00 653.64 0.00 31.5 100.0 --
04/29/2019 06:00 653.67 0.00 31.7 93.0 --
04/29/2019 05:00 653.67 0.00 31.7 93.0 --
04/29/2019 04:00 653.69 0.00 33.7 88.0 --
04/29/2019 03:00 653.75 0.00 36.5 78.0 --
04/29/2019 02:00 653.77 0.00 41.9 61.0 --
04/29/2019 01:00 653.79 0.00 41.2 73.0 --
04/29/2019 00:00 653.81 0.00 44.6 70.0 --
04/28/2019 23:00 653.82 0.00 43.5 70.0 --
04/28/2019 22:00 653.85 0.00 47.6 64.0 --
04/28/2019 21:00 653.86 0.00 48.2 65.0 --
04/28/2019 20:00 653.88 0.00 47.7 67.0 --
04/28/2019 19:00 653.92 0.00 49.8 55.0 --
04/28/2019 18:00 653.94 0.00 50.4 51.0 --
04/28/2019 17:00 653.94 0.00 50.3 50.0 --
04/28/2019 16:00 653.97 0.00 48.7 52.0 --
04/28/2019 15:00 653.97 0.00 48.1 53.0 --
04/28/2019 14:00 653.97 0.00 48.1 53.0 --
04/28/2019 13:00 653.99 0.00 47.5 56.0 --
04/28/2019 12:00 654.00 0.00 45.5 56.0 --
04/28/2019 11:00 654.01 0.00 43.9 60.0 --
04/28/2019 10:00 654.01 0.00 41.3 66.0 --
04/28/2019 09:00 654.01 0.00 41.3 66.0 --
04/28/2019 08:00 654.02 0.00 39.8 71.0 --
04/28/2019 07:00 654.01 0.00 40.3 71.0 --
04/28/2019 06:00 654.00 0.00 40.8 67.0 --
04/28/2019 05:00 653.99 0.00 40.8 71.0 --
04/28/2019 04:00 653.99 0.00 40.8 71.0 --
04/28/2019 03:00 653.98 0.00 40.1 70.0 --
04/28/2019 02:00 653.94 0.00 40.9 60.0 --
04/28/2019 01:00 653.92 0.00 41.0 60.0 --
04/28/2019 00:00 653.88 0.00 41.3 60.0 --
04/27/2019 23:00 653.88 0.00 41.3 60.0 --
04/27/2019 22:00 653.86 0.00 42.0 58.0 --
04/27/2019 21:00 653.79 0.00 42.7 57.0 --
04/27/2019 20:00 653.74 0.00 43.3 55.0 --
04/27/2019 19:00 653.69 0.00 43.8 56.0 --
04/27/2019 18:00 653.66 0.00 44.0 54.0 --
04/27/2019 17:00 653.53 0.00 44.8 53.0 --
04/27/2019 16:00 653.50 0.00 43.8 57.0 --
04/27/2019 15:00 653.43 0.01 45.5 59.0 --
04/27/2019 14:00 653.35 0.00 43.7 69.0 --
04/27/2019 13:00 653.35 0.00 43.7 69.0 --
04/27/2019 12:00 653.30 0.00 42.3 78.0 --
04/27/2019 11:00 653.14 0.01 42.9 88.0 --
04/27/2019 10:00 653.08 0.00 44.0 94.0 --
04/27/2019 09:00 652.99 0.00 42.5 100.0 --
04/27/2019 08:00 652.99 0.02 42.5 100.0 --
04/27/2019 07:00 652.89 0.06 41.2 100.0 --
04/27/2019 06:00 652.72 0.08 39.3 100.0 --
04/27/2019 05:00 652.64 0.04 38.7 100.0 --
04/27/2019 04:00 652.56 0.00 39.1 100.0 --
04/27/2019 03:00 652.56 0.18 39.1 100.0 --
04/27/2019 02:00 652.51 0.40 38.8 100.0 --
04/27/2019 01:00 652.44 0.00 39.2 100.0 --
04/27/2019 00:00 652.42 0.09 39.2 100.0 --
04/26/2019 23:00 652.43 0.00 39.2 100.0 --
04/26/2019 22:00 652.43 0.15 39.2 100.0 --
04/26/2019 21:00 652.35 0.01 39.8 100.0 --
04/26/2019 20:00 652.34 0.15 41.0 100.0 --
04/26/2019 19:00 652.37 0.30 41.1 100.0 --
04/26/2019 18:00 652.32 0.00 42.3 100.0 --
04/26/2019 17:00 652.32 0.10 42.3 100.0 --
04/26/2019 16:00 652.34 0.02 42.9 100.0 --
04/26/2019 15:00 652.33 0.01 44.0 100.0 --
04/26/2019 14:00 652.34 0.03 44.8 100.0 --
04/26/2019 13:00 652.34 0.00 45.2 100.0 --
04/26/2019 12:00 652.34 0.04 45.2 100.0 --
04/26/2019 11:00 652.34 0.03 44.1 100.0 --
04/26/2019 10:00 652.36 0.01 43.5 100.0 --
04/26/2019 09:00 652.37 0.00 42.7 100.0 --
04/26/2019 08:00 652.36 0.00 42.2 100.0 --
04/26/2019 07:00 652.36 0.00 42.2 100.0 --
04/26/2019 06:00 652.37 0.00 42.3 100.0 --
04/26/2019 05:00 652.38 0.00 40.9 100.0 --
04/26/2019 04:00 652.40 0.00 39.8 100.0 --
04/26/2019 03:00 652.42 0.00 44.5 88.0 --
04/26/2019 02:00 652.42 0.00 44.9 86.0 --
04/26/2019 01:00 652.43 0.00 44.9 84.0 --
04/26/2019 00:00 652.44 0.00 47.2 76.0 --
04/25/2019 23:00 652.46 0.00 51.3 63.0 --
04/25/2019 22:00 652.47 0.00 55.7 58.0 --
04/25/2019 21:00 652.47 0.00 55.7 58.0 --
04/25/2019 20:00 652.48 0.00 59.3 51.0 --
04/25/2019 19:00 652.48 0.00 63.2 43.0 --
04/25/2019 18:00 652.49 0.00 60.6 45.5 --
04/25/2019 17:00 652.51 0.00 58.0 48.0 --
04/25/2019 16:00 652.52 0.00 55.5 50.5 --
04/25/2019 15:00 652.53 0.00 52.9 53.0 --
04/25/2019 14:00 652.54 0.00 51.3 54.0 --
04/25/2019 13:00 652.55 0.00 48.5 61.0 --
04/25/2019 12:00 652.56 0.00 46.0 67.0 --
04/25/2019 11:00 652.56 0.00 46.0 67.0 --
04/25/2019 10:00 652.57 0.00 45.0 70.0 --
04/25/2019 09:00 652.59 0.00 38.3 100.0 --
04/25/2019 08:00 652.59 0.00 37.7 100.0 --
04/25/2019 07:00 652.60 0.00 37.1 100.0 --
04/25/2019 06:00 652.61 0.00 37.1 100.0 --
04/25/2019 05:00 652.62 0.00 38.8 99.0 --
04/25/2019 04:00 652.63 0.00 40.4 90.0 --
04/25/2019 03:00 652.63 0.00 43.5 76.0 --
04/25/2019 02:00 652.63 0.00 45.4 70.0 --
04/25/2019 01:00 652.63 0.00 45.4 70.0 --
04/25/2019 00:00 652.64 0.00 46.3 68.0 --
04/24/2019 23:00 652.64 0.00 47.5 67.0 --
04/24/2019 22:00 652.65 0.00 48.6 64.0 --
04/24/2019 21:00 652.65 0.00 50.9 58.0 --
04/24/2019 20:00 652.65 0.00 52.8 56.0 --
04/24/2019 19:00 652.66 0.00 53.1 57.0 --
04/24/2019 18:00 652.66 0.00 53.1 57.0 --
04/24/2019 17:00 652.66 0.00 52.8 60.0 --
04/24/2019 16:00 652.66 0.00 55.7 54.0 --
04/24/2019 15:00 652.66 0.00 55.7 54.0 --
04/24/2019 14:00 652.70 0.01 55.1 53.0 --
04/24/2019 13:00 652.74 0.00 52.9 58.0 --
04/24/2019 12:00 652.69 0.00 50.7 76.0 --
04/24/2019 11:00 652.68 0.00 47.0 100.0 --
04/24/2019 10:00 652.68 0.00 47.0 100.0 --
04/24/2019 09:00 652.69 0.00 43.2 100.0 --
04/24/2019 08:00 652.67 0.00 43.1 100.0 --
04/24/2019 07:00 652.66 0.00 42.9 100.0 --
04/24/2019 06:00 652.66 0.00 42.8 100.0 --
04/24/2019 05:00 652.66 0.00 42.8 100.0 --
04/24/2019 04:00 652.65 0.01 42.7 100.0 --
04/24/2019 03:00 652.65 0.03 43.3 100.0 --
04/24/2019 02:00 652.65 0.08 44.0 100.0 --
04/24/2019 01:00 652.63 0.00 46.5 100.0 --
04/24/2019 00:00 652.63 0.00 46.5 100.0 --
04/23/2019 23:00 652.62 0.00 49.3 95.0 --
04/23/2019 22:00 652.63 0.00 52.2 88.0 --
04/23/2019 21:00 652.62 0.00 55.5 80.0 --
04/23/2019 20:00 652.60 0.00 59.7 68.0 --
04/23/2019 19:00 652.60 0.00 61.6 62.0 --
04/23/2019 18:00 652.59 0.00 59.1 67.0 --
04/23/2019 17:00 652.59 0.00 59.1 67.0 --
04/23/2019 16:00 652.58 0.00 56.6 71.0 --
04/23/2019 15:00 652.56 0.00 52.5 83.0 --
04/23/2019 14:00 652.55 0.00 52.0 86.0 --
04/23/2019 13:00 652.54 0.00 51.5 87.0 --
04/23/2019 12:00 652.54 0.00 51.5 87.0 --
04/23/2019 11:00 652.52 0.00 50.8 93.0 --
04/23/2019 10:00 652.51 0.00 49.4 100.0 --
04/23/2019 09:00 652.49 0.00 48.6 100.0 --
04/23/2019 08:00 652.48 0.00 49.1 100.0 --
04/23/2019 07:00 652.48 0.00 49.1 100.0 --
04/23/2019 06:00 652.46 0.00 49.6 100.0 --
04/23/2019 05:00 652.44 0.00 50.9 100.0 --
04/23/2019 04:00 652.43 0.05 52.0 100.0 --
04/23/2019 03:00 652.43 0.00 52.9 100.0 --
04/23/2019 02:00 652.43 0.13 52.9 100.0 --
04/23/2019 01:00 652.40 0.06 53.6 100.0 --
04/23/2019 00:00 652.41 0.05 53.7 100.0 --
04/22/2019 23:00 652.39 0.05 54.4 100.0 --
04/22/2019 22:00 652.41 0.05 55.0 100.0 --
04/22/2019 21:00 652.40 0.14 56.0 100.0 --
04/22/2019 20:00 652.38 0.01 57.1 100.0 --
04/22/2019 19:00 652.38 0.05 58.1 100.0 --
04/22/2019 18:00 652.39 0.10 58.3 100.0 --
04/22/2019 17:00 652.39 0.00 66.1 64.0 --
04/22/2019 16:00 652.39 0.00 66.1 64.0 --
04/22/2019 15:00 652.39 0.00 64.5 70.0 --
04/22/2019 14:00 652.40 0.00 65.8 65.0 --
04/22/2019 13:00 652.42 0.00 67.3 65.0 --
04/22/2019 12:00 652.42 0.00 59.0 85.0 --
04/22/2019 11:00 652.41 0.00 54.5 100.0 --
04/22/2019 10:00 652.43 0.00 46.7 100.0 --
04/22/2019 09:00 652.43 0.00 46.7 100.0 --
04/22/2019 08:00 652.43 0.00 45.0 100.0 --
04/22/2019 07:00 652.43 0.00 46.6 100.0 --
04/22/2019 06:00 652.45 0.00 47.3 100.0 --
04/22/2019 05:00 652.45 0.00 48.6 100.0 --
04/22/2019 04:00 652.45 0.00 48.6 100.0 --
04/22/2019 03:00 652.46 0.00 48.9 100.0 --
04/22/2019 02:00 652.45 0.00 51.4 100.0 --
04/22/2019 01:00 652.45 0.00 51.4 100.0 --
04/22/2019 00:00 652.46 0.00 52.2 100.0 --
04/21/2019 23:00 652.46 0.00 54.1 100.0 --
04/21/2019 22:00 652.47 0.00 56.7 95.0 --
04/21/2019 21:00 652.47 0.00 63.9 77.0 --
04/21/2019 20:00 652.47 0.00 63.9 77.0 --
04/21/2019 19:00 652.46 0.00 64.1 70.0 --
04/21/2019 18:00 652.47 0.00 66.1 65.0 --
04/21/2019 17:00 652.46 0.00 63.3 71.0 --
04/21/2019 16:00 652.45 0.00 63.2 73.0 --
04/21/2019 15:00 652.45 0.00 63.2 73.0 --
04/21/2019 14:00 652.45 0.00 62.3 79.0 --
04/21/2019 13:00 652.43 0.00 58.7 85.0 --
04/21/2019 12:00 652.43 0.00 57.1 100.0 --
04/21/2019 11:00 652.43 0.00 55.6 100.0 --
04/21/2019 10:00 652.43 0.01 55.6 100.0 --
04/21/2019 09:00 652.41 0.00 54.6 100.0 --
04/21/2019 08:00 652.40 0.00 53.5 100.0 --
04/21/2019 07:00 652.39 0.00 53.7 100.0 --
04/21/2019 06:00 652.36 0.00 54.7 100.0 --
04/21/2019 05:00 652.36 0.00 54.7 100.0 --
04/21/2019 04:00 652.35 0.02 55.7 100.0 --
04/21/2019 03:00 652.30 0.00 61.0 100.0 --
04/21/2019 02:00 652.31 0.00 62.5 99.0 --
04/21/2019 01:00 652.29 0.00 63.2 100.0 --
04/21/2019 00:00 652.29 0.00 63.2 100.0 --
04/20/2019 23:00 652.27 0.00 63.3 100.0 --
04/20/2019 22:00 652.24 0.00 66.1 86.0 --
04/20/2019 21:00 652.22 0.00 66.9 84.0 --
04/20/2019 20:00 652.21 0.00 67.5 79.0 --
04/20/2019 19:00 652.21 0.00 67.5 79.0 --
04/20/2019 18:00 652.19 0.00 69.1 85.0 --
04/20/2019 17:00 652.13 0.01 68.0 100.0 --
04/20/2019 16:00 652.13 0.00 65.6 100.0 --
04/20/2019 15:00 652.11 0.00 64.6 100.0 --
04/20/2019 14:00 652.11 0.03 64.6 100.0 --
04/20/2019 13:00 652.09 0.29 64.4 100.0 --
04/20/2019 12:00 652.04 0.00 65.8 92.0 --
04/20/2019 11:00 652.02 0.00 64.8 95.0 --
04/20/2019 10:00 652.03 0.00 64.5 100.0 --
04/20/2019 09:00 652.03 0.00 64.5 100.0 --
04/20/2019 08:00 652.02 0.00 64.0 100.0 --
04/20/2019 07:00 652.00 0.11 64.1 100.0 --
04/20/2019 06:00 651.99 0.10 65.1 100.0 --
04/20/2019 05:00 652.00 0.00 63.2 100.0 --
04/20/2019 04:00 652.00 0.05 63.2 100.0 --
04/20/2019 03:00 652.00 0.19 63.5 100.0 --
04/20/2019 02:00 651.97 0.00 65.9 91.0 --
04/20/2019 01:00 651.99 0.00 68.5 76.0 --
04/20/2019 00:00 651.98 0.00 68.2 75.0 --
04/19/2019 23:00 651.98 0.00 68.2 75.0 --
04/19/2019 22:00 652.01 0.00 68.2 74.0 --
04/19/2019 21:00 652.01 0.00 70.5 65.0 --
04/19/2019 20:00 652.01 0.00 71.9 61.0 --
04/19/2019 19:00 652.03 0.00 71.2 60.0 --
04/19/2019 18:00 652.03 0.00 71.2 60.0 --
04/19/2019 17:00 652.01 0.01 73.1 56.0 --
04/19/2019 16:00 652.03 0.00 68.7 64.0 --
04/19/2019 15:00 652.04 0.00 66.1 72.0 --
04/19/2019 14:00 652.02 0.00 63.5 78.0 --
04/19/2019 13:00 652.02 0.00 63.5 78.0 --
04/19/2019 12:00 -- -- -- -- --
04/19/2019 11:00 -- -- -- -- --
04/19/2019 10:00 -- -- -- -- --
04/19/2019 09:00 -- -- -- -- --
04/19/2019 08:00 -- -- -- -- --
04/19/2019 07:00 -- -- -- -- --
04/19/2019 06:00 -- -- -- -- --
04/19/2019 05:00 -- -- -- -- --
04/19/2019 04:00 -- -- -- -- --
04/19/2019 03:00 -- -- -- -- --
04/19/2019 02:00 -- -- -- -- --